createdAt,value
2023-04-16T00:01:07.063Z,15.70
2023-04-16T00:03:35.663Z,20.92
2023-04-16T00:06:03.858Z,16.38
2023-04-16T00:08:31.702Z,12.38
2023-04-16T00:10:59.463Z,13.23
2023-04-16T00:13:28.118Z,15.43
2023-04-16T00:15:56.032Z,17.15
2023-04-16T00:18:23.868Z,11.93
2023-04-16T00:20:52.362Z,14.32
2023-04-16T00:23:21.101Z,18.33
2023-04-16T00:25:48.997Z,15.15
2023-04-16T00:28:16.940Z,13.57
2023-04-16T00:30:45.000Z,16.60
2023-04-16T00:33:12.616Z,14.38
2023-04-16T00:35:40.979Z,14.48
2023-04-16T00:38:09.504Z,16.90
2023-04-16T00:40:37.100Z,12.05
2023-04-16T00:43:05.087Z,18.73
2023-04-16T00:45:33.321Z,14.95
2023-04-16T00:48:01.928Z,11.70
2023-04-16T00:50:30.491Z,16.02
2023-04-16T00:52:58.595Z,13.07
2023-04-16T00:55:26.838Z,10.20
2023-04-16T00:57:54.690Z,11.48
2023-04-16T01:00:22.453Z,11.48
2023-04-16T01:02:50.525Z,14.65
2023-04-16T01:05:20.674Z,13.95
2023-04-16T01:07:48.120Z,14.23
2023-04-16T01:10:16.669Z,9.70
2023-04-16T01:12:44.346Z,10.50
2023-04-16T01:15:12.338Z,11.02
2023-04-16T01:17:40.148Z,10.40
2023-04-16T01:20:08.100Z,12.45
2023-04-16T01:22:38.197Z,9.38
2023-04-16T01:25:06.325Z,11.57
2023-04-16T01:27:34.161Z,13.45
2023-04-16T01:30:01.960Z,10.00
2023-04-16T01:32:40.835Z,13.13
2023-04-16T01:35:08.484Z,12.13
2023-04-16T01:37:36.333Z,12.02
2023-04-16T01:40:04.219Z,14.52
2023-04-16T01:42:32.429Z,11.15
2023-04-16T01:45:00.284Z,11.05
2023-04-16T01:47:28.508Z,10.75
2023-04-16T01:49:56.592Z,14.18
2023-04-16T01:52:24.262Z,15.38
2023-04-16T01:54:52.533Z,11.60
2023-04-16T01:57:20.382Z,13.80
2023-04-16T01:59:48.151Z,11.70
2023-04-16T02:02:17.226Z,8.35
2023-04-16T02:04:46.336Z,8.98
2023-04-16T02:07:14.224Z,13.30
2023-04-16T02:09:42.117Z,11.65
2023-04-16T02:12:11.582Z,10.40
2023-04-16T02:14:39.506Z,13.88
2023-04-16T02:17:07.333Z,10.23
2023-04-16T02:19:40.780Z,12.25
2023-04-16T02:22:10.319Z,14.20
2023-04-16T02:24:38.131Z,10.10
2023-04-16T02:27:09.482Z,14.00
2023-04-16T02:29:37.575Z,7.55
2023-04-16T02:32:12.310Z,10.20
2023-04-16T02:34:43.202Z,11.27
2023-04-16T02:37:11.037Z,9.48
2023-04-16T02:39:39.168Z,10.45
2023-04-16T02:42:06.885Z,10.52
2023-04-16T02:44:35.055Z,11.88
2023-04-16T02:47:02.659Z,16.42
2023-04-16T02:49:30.539Z,12.80
2023-04-16T02:51:58.440Z,10.52
2023-04-16T02:54:26.427Z,8.05
2023-04-16T02:56:54.237Z,8.45
2023-04-16T02:59:22.177Z,8.60
2023-04-16T03:01:50.021Z,8.52
2023-04-16T03:04:18.358Z,12.05
2023-04-16T03:06:46.502Z,8.50
2023-04-16T03:09:15.221Z,9.05
2023-04-16T03:11:43.132Z,7.40
2023-04-16T03:14:11.996Z,8.48
2023-04-16T03:16:39.730Z,10.38
2023-04-16T03:19:07.837Z,6.65
2023-04-16T03:21:37.705Z,10.43
2023-04-16T03:24:05.892Z,9.10
2023-04-16T03:26:33.729Z,5.97
2023-04-16T03:29:02.442Z,9.85
2023-04-16T03:31:32.557Z,6.63
2023-04-16T03:34:00.755Z,6.93
2023-04-16T03:36:28.403Z,7.18
2023-04-16T03:38:56.776Z,9.68
2023-04-16T03:41:24.687Z,10.50
2023-04-16T03:43:52.400Z,8.00
2023-04-16T03:46:20.416Z,11.95
2023-04-16T03:48:48.164Z,8.73
2023-04-16T03:51:16.357Z,6.38
2023-04-16T03:53:43.883Z,9.95
2023-04-16T03:56:11.540Z,7.93
2023-04-16T03:58:39.125Z,9.80
2023-04-16T04:01:06.764Z,6.80
2023-04-16T04:03:34.821Z,7.28
2023-04-16T04:06:08.463Z,8.95
2023-04-16T04:08:36.321Z,9.65
2023-04-16T04:11:05.401Z,7.75
2023-04-16T04:13:34.959Z,9.30
2023-04-16T04:16:02.571Z,11.57
2023-04-16T04:18:30.387Z,9.60
2023-04-16T04:20:58.229Z,8.98
2023-04-16T04:23:29.407Z,9.52
2023-04-16T04:25:57.082Z,7.78
2023-04-16T04:28:25.633Z,6.18
2023-04-16T04:30:53.518Z,8.95
2023-04-16T04:33:21.631Z,9.43
2023-04-16T04:35:49.360Z,10.57
2023-04-16T04:38:20.381Z,9.95
2023-04-16T04:40:49.411Z,13.88
2023-04-16T04:43:22.403Z,10.27
2023-04-16T04:45:51.240Z,12.43
2023-04-16T04:48:19.524Z,11.25
2023-04-16T04:50:48.006Z,6.85
2023-04-16T04:53:15.910Z,10.23
2023-04-16T04:55:43.947Z,8.85
2023-04-16T04:58:11.685Z,13.27
2023-04-16T05:00:40.889Z,10.82
2023-04-16T05:03:11.571Z,10.45
2023-04-16T05:05:41.148Z,13.70
2023-04-16T05:08:08.647Z,11.38
2023-04-16T05:10:36.607Z,11.90
2023-04-16T05:13:04.121Z,10.85
2023-04-16T05:15:31.736Z,12.45
2023-04-16T05:17:59.310Z,12.38
2023-04-16T05:20:26.844Z,11.30
2023-04-16T05:22:55.529Z,11.43
2023-04-16T05:25:23.179Z,13.18
2023-04-16T05:27:50.753Z,10.10
2023-04-16T05:30:18.672Z,10.05
2023-04-16T05:32:46.720Z,8.95
2023-04-16T05:35:15.992Z,8.82
2023-04-16T05:37:45.046Z,11.63
2023-04-16T05:40:14.797Z,10.00
2023-04-16T05:42:42.448Z,14.02
2023-04-16T05:45:10.782Z,10.32
2023-04-16T05:47:38.508Z,10.43
2023-04-16T05:50:06.869Z,8.38
2023-04-16T05:52:34.531Z,12.60
2023-04-16T05:55:02.246Z,9.93
2023-04-16T05:57:30.616Z,15.63
2023-04-16T05:59:58.067Z,10.23
2023-04-16T06:02:25.949Z,8.80
2023-04-16T06:04:53.597Z,9.55
2023-04-16T06:07:21.130Z,10.45
2023-04-16T06:09:48.684Z,11.02
2023-04-16T06:12:16.543Z,16.42
2023-04-16T06:14:44.048Z,15.07
2023-04-16T06:17:12.387Z,11.88
2023-04-16T06:19:39.845Z,11.02
2023-04-16T06:22:07.920Z,13.63
2023-04-16T06:24:35.542Z,15.05
2023-04-16T06:27:03.262Z,10.60
2023-04-16T06:29:40.325Z,11.88
2023-04-16T06:32:09.672Z,13.77
2023-04-16T06:34:39.482Z,10.90
2023-04-16T06:37:09.850Z,13.05
2023-04-16T06:39:38.294Z,18.65
2023-04-16T06:42:06.071Z,11.98
2023-04-16T06:44:33.790Z,10.63
2023-04-16T06:47:01.530Z,13.93
2023-04-16T06:49:29.352Z,12.25
2023-04-16T06:51:57.865Z,17.88
2023-04-16T06:54:25.554Z,14.02
2023-04-16T06:56:53.310Z,14.43
2023-04-16T06:59:21.160Z,18.02
2023-04-16T07:01:48.895Z,17.27
2023-04-16T07:04:16.463Z,14.60
2023-04-16T07:06:43.984Z,16.70
2023-04-16T07:09:11.945Z,14.80
2023-04-16T07:11:39.593Z,14.27
2023-04-16T07:14:07.585Z,15.00
2023-04-16T07:16:35.279Z,13.27
2023-04-16T07:19:03.089Z,19.10
2023-04-16T07:21:31.811Z,18.45
2023-04-16T07:23:59.444Z,11.95
2023-04-16T07:26:27.210Z,13.25
2023-04-16T07:28:54.825Z,12.65
2023-04-16T07:31:22.704Z,15.57
2023-04-16T07:33:50.744Z,15.13
2023-04-16T07:36:18.330Z,12.98
2023-04-16T07:38:46.092Z,11.80
2023-04-16T07:41:14.019Z,16.13
2023-04-16T07:43:41.753Z,11.93
2023-04-16T07:46:09.544Z,10.27
2023-04-16T07:48:37.248Z,13.05
2023-04-16T07:51:04.879Z,12.13
2023-04-16T07:53:32.805Z,14.70
2023-04-16T07:56:00.244Z,13.18
2023-04-16T07:58:27.761Z,7.85
2023-04-16T08:00:55.496Z,9.00
2023-04-16T08:03:23.353Z,10.02
2023-04-16T08:05:51.295Z,6.70
2023-04-16T08:08:18.739Z,9.48
2023-04-16T08:10:46.331Z,12.02
2023-04-16T08:13:13.994Z,10.05
2023-04-16T08:15:41.625Z,8.25
2023-04-16T08:18:15.756Z,8.13
2023-04-16T08:20:43.632Z,6.60
2023-04-16T08:23:11.197Z,9.18
2023-04-16T08:25:38.741Z,5.53
2023-04-16T08:28:06.222Z,8.85
2023-04-16T08:30:34.179Z,5.45
2023-04-16T08:33:02.112Z,10.43
2023-04-16T08:35:29.612Z,7.82
2023-04-16T08:37:58.140Z,5.53
2023-04-16T08:40:29.456Z,12.13
2023-04-16T08:42:59.677Z,5.55
2023-04-16T08:45:27.921Z,5.47
2023-04-16T08:47:55.537Z,3.35
2023-04-16T08:50:27.188Z,4.07
2023-04-16T08:52:59.928Z,3.33
2023-04-16T08:55:37.628Z,5.22
2023-04-16T08:58:25.069Z,3.97
2023-04-16T09:00:53.318Z,2.63
2023-04-16T09:03:21.940Z,2.85
2023-04-16T09:05:50.697Z,3.30
2023-04-16T09:08:18.549Z,3.95
2023-04-16T09:10:46.670Z,3.67
2023-04-16T09:13:16.556Z,2.00
2023-04-16T09:15:44.803Z,3.65
2023-04-16T09:18:12.698Z,4.13
2023-04-16T09:20:40.332Z,1.48
2023-04-16T09:23:07.759Z,3.08
2023-04-16T09:25:35.939Z,2.40
2023-04-16T09:28:03.727Z,3.42
2023-04-16T09:30:31.164Z,2.25
2023-04-16T09:33:23.076Z,2.78
2023-04-16T09:35:52.502Z,6.57
2023-04-16T09:38:21.368Z,4.55
2023-04-16T09:41:05.716Z,3.70
2023-04-16T09:43:33.186Z,6.00
2023-04-16T09:46:08.236Z,2.58
2023-04-16T09:48:36.222Z,2.50
2023-04-16T09:51:06.757Z,2.40
2023-04-16T09:53:34.094Z,1.73
2023-04-16T09:56:03.831Z,1.17
2023-04-16T09:58:31.685Z,1.52
2023-04-16T10:01:03.577Z,1.90
2023-04-16T10:03:32.333Z,2.97
2023-04-16T10:06:17.197Z,3.00
2023-04-16T10:08:57.323Z,1.75
2023-04-16T10:11:25.121Z,1.95
2023-04-16T10:13:53.401Z,4.13
2023-04-16T10:16:22.899Z,1.25
2023-04-16T10:18:50.405Z,2.90
2023-04-16T10:21:18.117Z,1.88
2023-04-16T10:23:46.504Z,1.05
2023-04-16T10:26:14.407Z,2.80
2023-04-16T10:28:42.523Z,1.23
2023-04-16T10:31:10.669Z,0.80
2023-04-16T10:33:41.756Z,2.70
2023-04-16T10:36:31.211Z,0.60
2023-04-16T10:38:59.966Z,0.93
2023-04-16T10:41:27.848Z,1.95
2023-04-16T10:44:10.085Z,0.88
2023-04-16T10:46:40.022Z,0.75
2023-04-16T10:49:17.884Z,0.80
2023-04-16T10:52:11.146Z,1.17
2023-04-16T10:54:39.326Z,1.15
2023-04-16T10:57:10.362Z,1.58
2023-04-16T10:59:39.778Z,2.70
2023-04-16T11:02:09.825Z,0.70
2023-04-16T11:04:39.378Z,1.75
2023-04-16T11:07:16.726Z,1.90
2023-04-16T11:09:50.391Z,0.75
2023-04-16T11:12:19.798Z,2.15
2023-04-16T11:14:50.349Z,1.30
2023-04-16T11:17:19.111Z,2.05
2023-04-16T11:19:47.038Z,1.30
2023-04-16T11:22:17.475Z,1.80
2023-04-16T11:24:46.867Z,1.20
2023-04-16T11:27:15.302Z,1.17
2023-04-16T11:29:43.536Z,1.08
2023-04-16T11:32:24.878Z,1.00
2023-04-16T11:34:52.408Z,0.77
2023-04-16T11:37:34.541Z,2.28
2023-04-16T11:40:05.035Z,3.97
2023-04-16T11:42:33.330Z,2.33
2023-04-16T11:45:01.141Z,0.43
2023-04-16T11:47:31.041Z,0.63
2023-04-16T11:50:15.196Z,0.25
2023-04-16T11:52:42.755Z,1.73
2023-04-16T11:55:10.288Z,0.55
2023-04-16T11:57:38.464Z,2.00
2023-04-16T12:00:10.625Z,0.70
2023-04-16T12:02:45.034Z,1.77
2023-04-16T12:05:35.112Z,1.17
2023-04-16T12:08:06.517Z,1.35
2023-04-16T12:10:36.430Z,0.95
2023-04-16T12:13:12.549Z,2.83
2023-04-16T12:15:50.452Z,1.38
2023-04-16T12:18:22.647Z,1.35
2023-04-16T12:20:53.152Z,1.83
2023-04-16T12:23:38.691Z,1.33
2023-04-16T12:26:10.887Z,0.70
2023-04-16T12:28:39.556Z,1.27
2023-04-16T12:31:10.887Z,0.70
2023-04-16T12:33:38.463Z,0.73
2023-04-16T12:36:21.172Z,0.93
2023-04-16T12:38:48.530Z,3.25
2023-04-16T12:41:16.097Z,0.35
2023-04-16T12:43:43.608Z,0.32
2023-04-16T12:46:11.222Z,0.73
2023-04-16T12:48:38.778Z,0.30
2023-04-16T12:51:06.684Z,1.48
2023-04-16T12:53:34.877Z,0.98
2023-04-16T12:56:02.859Z,1.00
2023-04-16T12:58:30.531Z,0.63
2023-04-16T13:00:58.509Z,0.75
2023-04-16T13:03:26.266Z,1.33
2023-04-16T13:05:54.127Z,1.33
2023-04-16T13:08:21.585Z,0.32
2023-04-16T13:10:48.924Z,3.40
2023-04-16T13:13:16.764Z,2.15
2023-04-16T13:15:44.250Z,4.20
2023-04-16T13:18:11.702Z,2.50
2023-04-16T13:20:39.289Z,1.83
2023-04-16T13:23:07.109Z,2.88
2023-04-16T13:25:34.710Z,3.92
2023-04-16T13:28:02.216Z,1.50
2023-04-16T13:30:29.741Z,0.70
2023-04-16T13:32:57.435Z,0.70
2023-04-16T13:35:25.305Z,2.55
2023-04-16T13:37:53.066Z,0.40
2023-04-16T13:40:21.166Z,1.73
2023-04-16T13:42:48.568Z,0.90
2023-04-16T13:45:16.112Z,2.03
2023-04-16T13:47:43.860Z,1.02
2023-04-16T13:50:11.445Z,1.05
2023-04-16T13:52:38.802Z,2.20
2023-04-16T13:55:06.939Z,1.25
2023-04-16T13:57:34.342Z,1.42
2023-04-16T14:00:02.950Z,3.20
2023-04-16T14:02:32.865Z,2.28
2023-04-16T14:05:00.417Z,4.40
2023-04-16T14:07:27.898Z,0.93
2023-04-16T14:09:55.676Z,0.52
2023-04-16T14:12:23.363Z,0.93
2023-04-16T14:14:50.996Z,3.72
2023-04-16T14:17:18.400Z,0.70
2023-04-16T14:19:45.824Z,0.38
2023-04-16T14:22:13.297Z,1.42
2023-04-16T14:24:40.983Z,2.17
2023-04-16T14:27:08.862Z,1.02
2023-04-16T14:29:36.924Z,1.23
2023-04-16T14:32:04.882Z,0.95
2023-04-16T14:34:32.554Z,0.40
2023-04-16T14:37:00.156Z,1.52
2023-04-16T14:39:27.774Z,1.15
2023-04-16T14:41:55.450Z,1.15
2023-04-16T14:44:23.174Z,2.25
2023-04-16T14:46:50.735Z,0.47
2023-04-16T14:49:18.583Z,1.17
2023-04-16T14:51:46.921Z,1.65
2023-04-16T14:54:14.372Z,2.13
2023-04-16T14:56:42.069Z,2.53
2023-04-16T14:59:09.753Z,6.15
2023-04-16T15:01:39.898Z,5.20
2023-04-16T15:04:07.764Z,6.10
2023-04-16T15:06:36.134Z,1.20
2023-04-16T15:09:04.219Z,4.65
2023-04-16T15:11:31.713Z,1.88
2023-04-16T15:13:59.361Z,5.72
2023-04-16T15:16:27.095Z,4.18
2023-04-16T15:18:56.246Z,1.55
2023-04-16T15:21:23.921Z,2.28
2023-04-16T15:23:51.611Z,0.75
2023-04-16T15:26:19.122Z,0.88
2023-04-16T15:28:46.559Z,0.88
2023-04-16T15:31:14.121Z,1.88
2023-04-16T15:33:41.664Z,1.35
2023-04-16T15:36:09.274Z,1.38
2023-04-16T15:38:36.705Z,0.60
2023-04-16T15:41:04.782Z,0.40
2023-04-16T15:43:32.320Z,1.35
2023-04-16T15:46:00.026Z,1.17
2023-04-16T15:48:27.696Z,2.95
2023-04-16T15:50:55.701Z,2.15
2023-04-16T15:53:23.427Z,2.20
2023-04-16T15:55:54.141Z,1.38
2023-04-16T15:58:21.737Z,4.78
2023-04-16T16:00:50.859Z,1.95
2023-04-16T16:03:19.403Z,1.80
2023-04-16T16:05:48.443Z,1.13
2023-04-16T16:08:16.191Z,4.45
2023-04-16T16:10:44.691Z,0.40
2023-04-16T16:13:14.374Z,2.63
2023-04-16T16:15:42.385Z,5.03
2023-04-16T16:18:10.241Z,0.80
2023-04-16T16:20:37.857Z,3.15
2023-04-16T16:23:05.632Z,2.45
2023-04-16T16:25:35.680Z,3.10
2023-04-16T16:28:06.337Z,1.15
2023-04-16T16:30:34.482Z,1.77
2023-04-16T16:33:02.373Z,0.45
2023-04-16T16:35:29.981Z,0.73
2023-04-16T16:37:59.583Z,1.75
2023-04-16T16:40:27.112Z,1.77
2023-04-16T16:42:54.957Z,2.50
2023-04-16T16:45:23.051Z,1.55
2023-04-16T16:47:50.998Z,2.22
2023-04-16T16:50:18.785Z,3.92
2023-04-16T16:52:46.481Z,1.70
2023-04-16T16:55:14.081Z,3.60
2023-04-16T16:57:42.178Z,3.53
2023-04-16T17:00:14.600Z,3.10
2023-04-16T17:02:42.737Z,2.85
2023-04-16T17:05:11.088Z,1.55
2023-04-16T17:07:39.566Z,9.63
2023-04-16T17:10:07.732Z,2.83
2023-04-16T17:12:36.213Z,2.47
2023-04-16T17:15:04.141Z,1.48
2023-04-16T17:17:33.250Z,4.35
2023-04-16T17:20:01.846Z,3.33
2023-04-16T17:22:29.461Z,5.85
2023-04-16T17:24:56.961Z,2.42
2023-04-16T17:27:24.399Z,4.60
2023-04-16T17:29:53.139Z,1.70
2023-04-16T17:32:21.153Z,2.95
2023-04-16T17:34:48.765Z,4.18
2023-04-16T17:37:16.614Z,1.77
2023-04-16T17:39:44.389Z,9.98
2023-04-16T17:42:11.788Z,3.40
2023-04-16T17:44:39.085Z,5.15
2023-04-16T17:47:06.495Z,3.20
2023-04-16T17:49:33.962Z,4.90
2023-04-16T17:52:01.503Z,5.20
2023-04-16T17:54:28.911Z,4.75
2023-04-16T17:56:57.672Z,2.20
2023-04-16T17:59:24.949Z,4.65
2023-04-16T18:01:52.992Z,3.47
2023-04-16T18:04:20.943Z,1.30
2023-04-16T18:06:49.012Z,2.13
2023-04-16T18:09:16.695Z,2.25
2023-04-16T18:11:44.294Z,2.83
2023-04-16T18:14:14.150Z,3.92
2023-04-16T18:16:42.212Z,3.75
2023-04-16T18:19:09.589Z,4.15
2023-04-16T18:21:37.328Z,3.08
2023-04-16T18:24:05.682Z,3.50
2023-04-16T18:26:36.268Z,2.22
2023-04-16T18:29:05.552Z,2.63
2023-04-16T18:31:33.310Z,5.45
2023-04-16T18:34:01.137Z,3.80
2023-04-16T18:36:29.051Z,1.95
2023-04-16T18:39:02.205Z,1.92
2023-04-16T18:41:31.462Z,1.75
2023-04-16T18:43:58.993Z,6.45
2023-04-16T18:46:27.786Z,4.55
2023-04-16T18:48:55.923Z,5.60
2023-04-16T18:51:23.627Z,2.20
2023-04-16T18:53:51.591Z,3.40
2023-04-16T18:56:19.298Z,2.65
2023-04-16T18:58:49.741Z,3.72
2023-04-16T19:01:18.061Z,5.18
2023-04-16T19:03:46.352Z,3.25
2023-04-16T19:06:14.080Z,5.20
2023-04-16T19:08:42.059Z,3.55
2023-04-16T19:11:09.817Z,4.57
2023-04-16T19:13:39.009Z,2.90
2023-04-16T19:16:11.385Z,3.50
2023-04-16T19:18:39.884Z,3.75
2023-04-16T19:21:08.223Z,8.25
2023-04-16T19:23:36.692Z,2.90
2023-04-16T19:26:04.786Z,6.03
2023-04-16T19:28:32.908Z,6.45
2023-04-16T19:31:00.760Z,7.28
2023-04-16T19:33:28.420Z,6.43
2023-04-16T19:35:56.736Z,2.90
2023-04-16T19:38:24.972Z,3.67
2023-04-16T19:40:53.521Z,4.32
2023-04-16T19:43:21.681Z,6.18
2023-04-16T19:45:53.868Z,4.13
2023-04-16T19:48:21.729Z,3.95
2023-04-16T19:50:49.746Z,4.20
2023-04-16T19:53:17.488Z,3.83
2023-04-16T19:55:45.766Z,3.60
2023-04-16T19:58:14.817Z,5.82
2023-04-16T20:00:42.541Z,5.63
2023-04-16T20:03:11.649Z,7.65
2023-04-16T20:05:39.211Z,4.90
2023-04-16T20:08:07.469Z,4.63
2023-04-16T20:10:36.470Z,8.55
2023-04-16T20:13:05.225Z,1.77
2023-04-16T20:15:33.174Z,2.85
2023-04-16T20:18:00.947Z,5.85
2023-04-16T20:20:28.673Z,5.13
2023-04-16T20:22:57.168Z,4.53
2023-04-16T20:25:26.426Z,4.80
2023-04-16T20:27:54.328Z,4.03
2023-04-16T20:30:29.367Z,2.80
2023-04-16T20:32:57.237Z,6.20
2023-04-16T20:35:25.015Z,4.25
2023-04-16T20:37:52.527Z,3.08
2023-04-16T20:40:21.630Z,2.35
2023-04-16T20:42:52.234Z,4.55
2023-04-16T20:45:19.967Z,7.80
2023-04-16T20:47:47.547Z,2.75
2023-04-16T20:50:16.161Z,3.78
2023-04-16T20:52:43.909Z,4.50
2023-04-16T20:55:11.622Z,3.60
2023-04-16T20:57:39.418Z,8.43
2023-04-16T21:00:10.654Z,1.40
2023-04-16T21:02:38.638Z,2.35
2023-04-16T21:05:10.440Z,3.80
2023-04-16T21:07:38.319Z,2.30
2023-04-16T21:10:07.039Z,5.03
2023-04-16T21:12:34.650Z,3.88
2023-04-16T21:15:03.995Z,5.97
2023-04-16T21:17:32.671Z,1.98
2023-04-16T21:20:00.934Z,5.03
2023-04-16T21:22:28.877Z,2.88
2023-04-16T21:24:57.821Z,3.55
2023-04-16T21:27:26.010Z,3.85
2023-04-16T21:29:54.220Z,4.32
2023-04-16T21:32:21.859Z,3.28
2023-04-16T21:34:49.834Z,3.13
2023-04-16T21:37:17.458Z,3.90
2023-04-16T21:39:45.484Z,2.67
2023-04-16T21:42:13.939Z,5.45
2023-04-16T21:44:41.713Z,3.75
2023-04-16T21:47:09.419Z,3.85
2023-04-16T21:49:37.141Z,1.67
2023-04-16T21:52:05.274Z,4.13
2023-04-16T21:54:33.387Z,4.43
2023-04-16T21:57:01.991Z,5.13
2023-04-16T21:59:30.370Z,3.42
2023-04-16T22:01:58.362Z,3.33
2023-04-16T22:04:26.708Z,3.60
2023-04-16T22:06:56.689Z,4.13
2023-04-16T22:09:27.807Z,4.38
2023-04-16T22:11:57.956Z,4.05
2023-04-16T22:14:26.339Z,10.38
2023-04-16T22:16:55.397Z,6.10
2023-04-16T22:19:24.190Z,7.10
2023-04-16T22:21:52.372Z,2.35
2023-04-16T22:24:21.058Z,3.50
2023-04-16T22:26:49.041Z,3.58
2023-04-16T22:29:16.977Z,1.40
2023-04-16T22:31:47.933Z,2.00
2023-04-16T22:34:16.030Z,1.73
2023-04-16T22:36:43.940Z,2.28
2023-04-16T22:39:12.183Z,1.20
2023-04-16T22:41:40.028Z,1.08
2023-04-16T22:44:07.655Z,1.85
2023-04-16T22:46:35.304Z,1.02
2023-04-16T22:49:03.330Z,0.95
2023-04-16T22:51:31.185Z,2.50
2023-04-16T22:53:59.008Z,1.15
2023-04-16T22:56:29.087Z,2.20
2023-04-16T22:58:57.540Z,3.22
2023-04-16T23:01:25.586Z,3.17
2023-04-16T23:03:53.639Z,5.70
2023-04-16T23:06:22.171Z,2.40
2023-04-16T23:08:49.922Z,2.95
2023-04-16T23:11:17.764Z,5.30
2023-04-16T23:13:46.054Z,0.70
2023-04-16T23:16:13.990Z,3.38
2023-04-16T23:18:41.875Z,2.55
2023-04-16T23:21:09.696Z,1.05
2023-04-16T23:23:37.735Z,2.63
2023-04-16T23:26:06.142Z,3.25
2023-04-16T23:28:34.002Z,2.25
2023-04-16T23:31:03.003Z,3.30
2023-04-16T23:33:31.897Z,0.95
2023-04-16T23:36:00.510Z,5.72
2023-04-16T23:38:28.834Z,1.60
2023-04-16T23:40:57.138Z,2.20
2023-04-16T23:43:25.293Z,2.42
2023-04-16T23:45:53.523Z,4.28
2023-04-16T23:48:22.046Z,3.15
2023-04-16T23:50:50.405Z,5.43
2023-04-16T23:53:18.354Z,3.15
2023-04-16T23:55:46.382Z,4.55
2023-04-16T23:58:14.533Z,3.03
